createdAt,value
2018-04-15T00:00:41.305Z,12.30
2018-04-15T00:03:09.368Z,11.73
2018-04-15T00:05:37.371Z,12.87
2018-04-15T00:08:05.362Z,12.40
2018-04-15T00:10:33.347Z,11.47
2018-04-15T00:13:01.292Z,13.37
2018-04-15T00:15:29.268Z,14.27
2018-04-15T00:17:57.193Z,12.97
2018-04-15T00:20:25.475Z,13.17
2018-04-15T00:22:53.436Z,14.70
2018-04-15T00:25:21.485Z,12.17
2018-04-15T00:27:49.478Z,11.43
2018-04-15T00:30:17.524Z,11.03
2018-04-15T00:32:45.522Z,10.33
2018-04-15T00:35:13.538Z,11.40
2018-04-15T00:37:41.469Z,13.47
2018-04-15T00:40:09.488Z,13.17
2018-04-15T00:42:37.481Z,11.60
2018-04-15T00:45:05.494Z,12.30
2018-04-15T00:47:33.453Z,12.40
2018-04-15T00:50:01.494Z,12.07
2018-04-15T00:52:29.478Z,14.20
2018-04-15T00:54:57.441Z,13.37
2018-04-15T00:57:25.442Z,13.30
2018-04-15T00:59:53.447Z,13.50
2018-04-15T01:02:21.464Z,12.33
2018-04-15T01:04:49.437Z,14.57
2018-04-15T01:07:17.393Z,17.87
2018-04-15T01:09:45.369Z,14.50
2018-04-15T01:12:13.437Z,15.27
2018-04-15T01:14:41.446Z,14.80
2018-04-15T01:17:09.468Z,13.67
2018-04-15T01:19:37.414Z,13.60
2018-04-15T01:22:05.901Z,11.50
2018-04-15T01:24:33.986Z,16.17
2018-04-15T01:27:02.003Z,15.60
2018-04-15T01:29:30.028Z,15.60
2018-04-15T01:31:58.005Z,13.87
2018-04-15T01:34:26.020Z,11.00
2018-04-15T01:36:54.012Z,12.07
2018-04-15T01:39:21.965Z,11.10
2018-04-15T01:41:50.004Z,11.53
2018-04-15T01:44:17.979Z,11.30
2018-04-15T01:46:45.914Z,11.63
2018-04-15T01:49:13.909Z,11.40
2018-04-15T01:51:41.956Z,11.17
2018-04-15T01:54:09.928Z,10.87
2018-04-15T01:56:37.882Z,11.60
2018-04-15T01:59:05.901Z,9.63
2018-04-15T02:01:33.865Z,11.37
2018-04-15T02:04:01.874Z,11.10
2018-04-15T02:06:29.851Z,12.27
2018-04-15T02:08:57.785Z,10.90
2018-04-15T02:11:25.746Z,11.87
2018-04-15T02:13:53.766Z,10.50
2018-04-15T02:16:21.743Z,11.30
2018-04-15T02:18:49.738Z,12.87
2018-04-15T02:21:17.705Z,11.67
2018-04-15T02:23:45.954Z,10.87
2018-04-15T02:26:13.849Z,11.90
2018-04-15T02:28:41.830Z,11.23
2018-04-15T02:31:09.844Z,11.83
2018-04-15T02:33:37.951Z,12.40
2018-04-15T02:36:05.959Z,11.90
2018-04-15T02:38:33.930Z,12.87
2018-04-15T02:41:01.913Z,10.87
2018-04-15T02:43:30.267Z,12.13
2018-04-15T02:45:58.274Z,11.50
2018-04-15T02:48:26.265Z,13.07
2018-04-15T02:50:54.262Z,12.57
2018-04-15T02:53:22.237Z,9.97
2018-04-15T02:55:50.202Z,12.50
2018-04-15T02:58:18.170Z,13.80
2018-04-15T03:00:46.096Z,14.33
2018-04-15T03:03:14.099Z,17.43
2018-04-15T03:05:42.142Z,17.37
2018-04-15T03:08:10.124Z,14.13
2018-04-15T03:10:38.160Z,14.43
2018-04-15T03:13:06.129Z,13.53
2018-04-15T03:15:34.106Z,15.33
2018-04-15T03:18:02.123Z,15.47
2018-04-15T03:20:30.077Z,14.60
2018-04-15T03:22:58.018Z,13.93
2018-04-15T03:25:26.286Z,12.87
2018-04-15T03:27:54.292Z,13.03
2018-04-15T03:30:22.376Z,11.83
2018-04-15T03:32:50.469Z,12.57
2018-04-15T03:35:18.449Z,11.20
2018-04-15T03:37:46.385Z,13.27
2018-04-15T03:40:14.424Z,12.40
2018-04-15T03:42:42.400Z,10.07
2018-04-15T03:45:10.343Z,12.50
2018-04-15T03:47:38.342Z,12.17
2018-04-15T03:50:06.337Z,12.23
2018-04-15T03:52:34.317Z,13.20
2018-04-15T03:55:02.307Z,10.27
2018-04-15T03:57:30.291Z,11.53
2018-04-15T03:59:58.242Z,10.93
2018-04-15T04:02:26.301Z,11.37
2018-04-15T04:04:54.259Z,11.73
2018-04-15T04:07:22.249Z,13.20
2018-04-15T04:09:50.251Z,11.80
2018-04-15T04:12:18.228Z,12.10
2018-04-15T04:14:46.194Z,13.20
2018-04-15T04:17:14.129Z,14.47
2018-04-15T04:19:53.947Z,15.37
2018-04-15T04:22:34.181Z,16.70
2018-04-15T04:28:11.333Z,14.23
2018-04-15T04:30:39.234Z,15.70
2018-04-15T04:33:07.199Z,15.13
2018-04-15T04:35:35.228Z,16.23
2018-04-15T04:38:03.197Z,13.93
2018-04-15T04:40:31.290Z,14.90
2018-04-15T04:42:59.288Z,15.73
2018-04-15T04:45:27.228Z,15.53
2018-04-15T04:47:55.273Z,15.67
2018-04-15T04:50:23.243Z,13.90
2018-04-15T04:52:51.161Z,15.63
2018-04-15T04:55:19.384Z,14.40
2018-04-15T04:57:47.675Z,14.27
2018-04-15T05:00:15.682Z,16.47
2018-04-15T05:02:43.624Z,17.63
2018-04-15T05:05:11.647Z,15.37
2018-04-15T05:07:39.682Z,14.80
2018-04-15T05:10:07.793Z,14.40
2018-04-15T05:12:35.706Z,15.90
2018-04-15T05:15:03.731Z,18.30
2018-04-15T05:17:31.697Z,18.27
2018-04-15T05:19:59.684Z,18.00
2018-04-15T05:22:27.730Z,15.90
2018-04-15T05:24:55.822Z,16.37
2018-04-15T05:27:23.841Z,16.80
2018-04-15T05:29:52.173Z,17.13
2018-04-15T05:32:20.216Z,17.07
2018-04-15T05:34:48.293Z,25.10
2018-04-15T05:37:16.253Z,21.00
2018-04-15T05:39:44.213Z,16.20
2018-04-15T05:42:12.273Z,18.87
2018-04-15T05:44:40.288Z,17.63
2018-04-15T05:47:08.254Z,19.70
2018-04-15T05:49:36.249Z,15.20
2018-04-15T05:52:04.217Z,22.47
2018-04-15T05:54:32.231Z,15.23
2018-04-15T05:57:00.210Z,15.97
2018-04-15T05:59:28.305Z,14.27
2018-04-15T06:01:56.294Z,13.57
2018-04-15T06:04:24.273Z,14.10
2018-04-15T06:06:52.164Z,18.37
2018-04-15T06:09:20.129Z,14.10
2018-04-15T06:11:48.069Z,14.33
2018-04-15T06:14:16.021Z,14.63
2018-04-15T06:16:44.024Z,15.80
2018-04-15T06:19:11.978Z,14.73
2018-04-15T06:21:40.176Z,14.43
2018-04-15T06:24:08.181Z,14.67
2018-04-15T06:26:36.291Z,15.23
2018-04-15T06:29:04.323Z,15.40
2018-04-15T06:31:32.532Z,16.10
2018-04-15T06:34:00.496Z,17.17
2018-04-15T06:36:28.417Z,14.07
2018-04-15T06:38:56.349Z,15.83
2018-04-15T06:41:24.284Z,14.97
2018-04-15T06:43:52.272Z,16.53
2018-04-15T06:46:20.275Z,16.57
2018-04-15T06:48:48.273Z,18.83
2018-04-15T06:51:16.403Z,17.80
2018-04-15T06:53:44.449Z,14.63
2018-04-15T06:56:12.466Z,14.73
2018-04-15T06:58:40.970Z,13.57
2018-04-15T07:01:08.929Z,10.43
2018-04-15T07:03:36.925Z,11.40
2018-04-15T07:06:04.917Z,12.93
2018-04-15T07:08:32.933Z,21.30
2018-04-15T07:11:00.925Z,27.77
2018-04-15T07:13:29.226Z,22.50
2018-04-15T07:15:57.228Z,26.10
2018-04-15T07:18:25.355Z,45.30
2018-04-15T07:20:53.317Z,19.90
2018-04-15T07:23:21.272Z,16.57
2018-04-15T07:25:49.159Z,19.97
2018-04-15T07:28:17.130Z,12.33
2018-04-15T07:30:45.090Z,14.17
2018-04-15T07:33:13.489Z,14.40
2018-04-15T07:35:41.518Z,11.60
2018-04-15T07:38:09.526Z,11.83
2018-04-15T07:40:37.518Z,14.23
2018-04-15T07:43:05.498Z,12.47
2018-04-15T07:45:33.471Z,13.03
2018-04-15T07:48:01.470Z,13.47
2018-04-15T07:50:29.449Z,13.87
2018-04-15T07:52:57.457Z,13.83
2018-04-15T07:55:25.474Z,13.83
2018-04-15T07:57:53.495Z,14.07
2018-04-15T08:00:21.545Z,13.10
2018-04-15T08:02:49.487Z,12.47
2018-04-15T08:05:17.496Z,13.03
2018-04-15T08:07:45.517Z,12.53
2018-04-15T08:10:13.546Z,12.77
2018-04-15T08:12:41.543Z,13.30
2018-04-15T08:15:09.505Z,15.30
2018-04-15T08:17:37.481Z,15.33
2018-04-15T08:20:05.421Z,14.83
2018-04-15T08:22:33.423Z,15.43
2018-04-15T08:25:01.513Z,14.30
2018-04-15T08:27:29.419Z,13.20
2018-04-15T08:29:57.398Z,13.67
2018-04-15T08:32:25.338Z,12.50
2018-04-15T08:34:53.582Z,13.20
2018-04-15T08:37:21.518Z,13.00
2018-04-15T08:39:49.461Z,13.03
2018-04-15T08:42:17.434Z,12.17
2018-04-15T08:44:45.329Z,15.13
2018-04-15T08:47:13.283Z,12.67
2018-04-15T08:49:41.274Z,13.67
2018-04-15T08:52:09.314Z,15.30
2018-04-15T08:54:37.349Z,13.07
2018-04-15T08:57:05.253Z,11.83
2018-04-15T08:59:33.286Z,13.63
2018-04-15T09:02:01.205Z,12.87
2018-04-15T09:04:29.193Z,11.30
2018-04-15T09:06:57.128Z,11.93
2018-04-15T09:09:25.145Z,15.67
2018-04-15T09:11:53.073Z,12.00
2018-04-15T09:14:21.085Z,12.30
2018-04-15T09:16:49.009Z,9.90
2018-04-15T09:19:16.967Z,10.53
2018-04-15T09:21:44.924Z,10.57
2018-04-15T09:24:12.903Z,10.40
2018-04-15T09:26:40.922Z,10.20
2018-04-15T09:29:08.886Z,11.00
2018-04-15T09:31:36.877Z,11.70
2018-04-15T09:34:04.906Z,12.30
2018-04-15T09:36:33.418Z,11.43
2018-04-15T09:39:01.479Z,11.63
2018-04-15T09:41:29.450Z,12.77
2018-04-15T09:43:57.445Z,11.83
2018-04-15T09:46:25.407Z,11.50
2018-04-15T09:48:53.455Z,12.20
2018-04-15T09:51:21.441Z,11.40
2018-04-15T09:53:49.451Z,11.43
2018-04-15T09:56:17.376Z,10.77
2018-04-15T09:58:45.305Z,10.00
2018-04-15T10:01:17.138Z,11.57
2018-04-15T10:03:45.060Z,8.80
2018-04-15T10:06:13.022Z,9.37
2018-04-15T10:08:41.056Z,12.90
2018-04-15T10:11:09.078Z,13.93
2018-04-15T10:13:37.204Z,14.20
2018-04-15T10:16:05.182Z,12.63
2018-04-15T10:18:33.109Z,11.97
2018-04-15T10:21:01.059Z,12.63
2018-04-15T10:23:29.020Z,11.57
2018-04-15T10:25:57.025Z,11.57
2018-04-15T10:28:25.000Z,12.03
2018-04-15T10:30:53.043Z,12.67
2018-04-15T10:33:20.964Z,12.60
2018-04-15T10:35:48.968Z,13.10
2018-04-15T10:38:17.439Z,12.07
2018-04-15T10:40:45.393Z,12.83
2018-04-15T10:43:13.474Z,12.30
2018-04-15T10:45:41.517Z,13.20
2018-04-15T10:48:09.475Z,15.53
2018-04-15T10:50:37.490Z,15.37
2018-04-15T10:53:05.468Z,14.27
2018-04-15T10:55:33.397Z,14.37
2018-04-15T10:58:01.334Z,14.60
2018-04-15T11:00:29.332Z,13.00
2018-04-15T11:02:57.333Z,12.70
2018-04-15T11:05:25.331Z,13.43
2018-04-15T11:07:53.304Z,13.20
2018-04-15T11:10:21.254Z,12.13
2018-04-15T11:12:49.216Z,9.97
2018-04-15T11:15:17.142Z,9.70
2018-04-15T11:17:45.127Z,10.40
2018-04-15T11:20:13.072Z,8.90
2018-04-15T11:22:41.057Z,8.13
2018-04-15T11:25:09.036Z,10.13
2018-04-15T11:27:37.007Z,9.97
2018-04-15T11:30:05.049Z,10.00
2018-04-15T11:32:33.037Z,11.10
2018-04-15T11:35:01.060Z,10.30
2018-04-15T11:37:28.997Z,10.80
2018-04-15T11:39:57.609Z,11.00
2018-04-15T11:42:25.605Z,9.10
2018-04-15T11:44:53.656Z,9.07
2018-04-15T11:47:21.657Z,7.80
2018-04-15T11:49:49.685Z,6.80
2018-04-15T11:52:17.653Z,6.13
2018-04-15T11:54:45.569Z,6.97
2018-04-15T11:57:13.537Z,8.47
2018-04-15T11:59:41.535Z,7.70
2018-04-15T12:02:09.523Z,6.20
2018-04-15T12:04:37.525Z,7.57
2018-04-15T12:07:05.504Z,6.90
2018-04-15T12:09:33.448Z,6.60
2018-04-15T12:12:01.372Z,7.47
2018-04-15T12:14:29.397Z,9.00
2018-04-15T12:16:57.323Z,6.80
2018-04-15T12:19:25.327Z,8.30
2018-04-15T12:21:53.259Z,7.37
2018-04-15T12:24:21.299Z,8.13
2018-04-15T12:26:49.274Z,7.83
2018-04-15T12:29:17.266Z,6.53
2018-04-15T12:31:45.282Z,7.20
2018-04-15T12:34:13.249Z,6.90
2018-04-15T12:36:41.229Z,6.47
2018-04-15T12:39:09.239Z,7.47
2018-04-15T12:41:37.685Z,8.53
2018-04-15T12:44:05.628Z,10.07
2018-04-15T12:46:33.704Z,9.40
2018-04-15T12:49:01.668Z,10.40
2018-04-15T12:51:29.689Z,9.00
2018-04-15T12:53:57.650Z,8.67
2018-04-15T12:56:25.621Z,9.23
2018-04-15T12:58:53.622Z,8.17
2018-04-15T13:01:21.587Z,8.50
2018-04-15T13:03:49.538Z,8.93
2018-04-15T13:06:17.547Z,8.00
2018-04-15T13:08:45.553Z,7.80
2018-04-15T13:11:13.591Z,8.33
2018-04-15T13:13:41.520Z,7.63
2018-04-15T13:16:09.520Z,6.93
2018-04-15T13:18:37.537Z,8.83
2018-04-15T13:21:05.485Z,8.60
2018-04-15T13:23:33.483Z,8.20
2018-04-15T13:26:01.510Z,7.10
2018-04-15T13:28:29.477Z,7.40
2018-04-15T13:30:57.538Z,6.63
2018-04-15T13:33:25.574Z,7.23
2018-04-15T13:35:53.595Z,7.00
2018-04-15T13:38:21.658Z,6.13
2018-04-15T13:40:49.596Z,8.43
2018-04-15T13:43:17.921Z,6.80
2018-04-15T13:45:45.943Z,6.27
2018-04-15T13:48:13.893Z,6.60
2018-04-15T13:50:41.849Z,6.37
2018-04-15T13:53:09.810Z,6.03
2018-04-15T13:55:37.832Z,6.20
2018-04-15T13:58:05.815Z,6.37
2018-04-15T14:00:33.801Z,6.60
2018-04-15T14:03:01.767Z,6.97
2018-04-15T14:05:29.722Z,6.83
2018-04-15T14:07:57.690Z,6.50
2018-04-15T14:10:25.680Z,6.87
2018-04-15T14:12:53.718Z,8.27
2018-04-15T14:15:21.817Z,7.30
2018-04-15T14:17:49.838Z,7.77
2018-04-15T14:20:17.861Z,7.50
2018-04-15T14:22:45.901Z,9.00
2018-04-15T14:25:13.875Z,8.37
2018-04-15T14:27:41.877Z,8.87
2018-04-15T14:30:09.894Z,8.77
2018-04-15T14:32:37.815Z,8.60
2018-04-15T14:35:05.800Z,11.77
2018-04-15T14:37:33.778Z,10.30
2018-04-15T14:40:01.780Z,8.27
2018-04-15T14:42:29.778Z,6.83
2018-04-15T14:44:58.158Z,5.67
2018-04-15T14:47:26.151Z,6.80
2018-04-15T14:49:54.129Z,8.13
2018-04-15T14:52:22.960Z,8.50
2018-04-15T14:54:50.942Z,9.37
2018-04-15T14:57:18.895Z,10.80
2018-04-15T14:59:46.888Z,11.57
2018-04-15T15:02:14.880Z,10.73
2018-04-15T15:04:42.925Z,11.60
2018-04-15T15:07:10.984Z,9.10
2018-04-15T15:09:39.062Z,7.53
2018-04-15T15:12:07.000Z,9.03
2018-04-15T15:14:35.081Z,6.93
2018-04-15T15:17:03.070Z,6.87
2018-04-15T15:19:31.076Z,7.40
2018-04-15T15:21:59.188Z,6.73
2018-04-15T15:24:27.097Z,8.03
2018-04-15T15:26:55.048Z,7.60
2018-04-15T15:29:23.015Z,8.00
2018-04-15T15:31:51.063Z,8.00
2018-04-15T15:34:19.039Z,8.83
2018-04-15T15:36:47.099Z,7.33
2018-04-15T15:39:15.128Z,7.20
2018-04-15T15:41:43.034Z,7.53
2018-04-15T15:44:10.995Z,6.87
2018-04-15T15:46:39.311Z,7.60
2018-04-15T15:49:07.385Z,6.97
2018-04-15T15:51:35.359Z,7.53
2018-04-15T15:54:03.453Z,7.20
2018-04-15T15:56:31.424Z,8.20
2018-04-15T15:58:59.353Z,7.33
2018-04-15T16:01:27.297Z,8.67
2018-04-15T16:03:55.250Z,7.80
2018-04-15T16:06:23.277Z,7.37
2018-04-15T16:08:51.252Z,8.40
2018-04-15T16:11:19.233Z,8.03
2018-04-15T16:13:47.158Z,7.40
2018-04-15T16:16:15.121Z,14.00
2018-04-15T16:18:43.085Z,8.87
2018-04-15T16:21:11.049Z,10.67
2018-04-15T16:23:39.043Z,8.80
2018-04-15T16:26:07.019Z,9.03
2018-04-15T16:28:35.015Z,7.47
2018-04-15T16:31:03.025Z,9.30
2018-04-15T16:33:31.056Z,9.47
2018-04-15T16:35:59.086Z,10.83
2018-04-15T16:38:27.012Z,11.57
2018-04-15T16:40:55.054Z,10.33
2018-04-15T16:43:23.016Z,10.27
2018-04-15T16:45:50.944Z,9.70
2018-04-15T16:48:19.243Z,10.90
2018-04-15T16:50:47.246Z,11.00
2018-04-15T16:53:15.238Z,9.33
2018-04-15T16:55:43.252Z,11.80
2018-04-15T16:58:11.256Z,11.27
2018-04-15T17:00:39.222Z,9.43
2018-04-15T17:03:07.321Z,10.10
2018-04-15T17:05:35.331Z,12.73
2018-04-15T17:08:03.289Z,12.20
2018-04-15T17:10:31.274Z,12.40
2018-04-15T17:12:59.300Z,12.03
2018-04-15T17:15:27.266Z,13.17
2018-04-15T17:17:55.323Z,12.67
2018-04-15T17:20:23.319Z,9.73
2018-04-15T17:22:51.269Z,10.90
2018-04-15T17:25:19.290Z,10.67
2018-04-15T17:27:47.291Z,10.40
2018-04-15T17:30:15.338Z,11.97
2018-04-15T17:32:43.371Z,12.57
2018-04-15T17:35:11.414Z,11.00
2018-04-15T17:37:39.368Z,9.87
2018-04-15T17:40:07.381Z,8.90
2018-04-15T17:42:35.514Z,9.27
2018-04-15T17:45:03.611Z,9.63
2018-04-15T17:47:32.499Z,9.57
2018-04-15T17:50:00.931Z,8.50
2018-04-15T17:52:29.486Z,12.30
2018-04-15T17:54:57.630Z,10.00
2018-04-15T17:57:26.998Z,9.10
2018-04-15T17:59:55.090Z,12.30
2018-04-15T18:02:23.262Z,10.77
2018-04-15T18:04:51.651Z,9.23
2018-04-15T18:07:19.743Z,8.30
2018-04-15T18:09:47.825Z,9.37
2018-04-15T18:12:15.956Z,8.70
2018-04-15T18:14:44.180Z,11.00
2018-04-15T18:17:12.513Z,15.10
2018-04-15T18:19:40.654Z,11.27
2018-04-15T18:22:08.809Z,9.10
2018-04-15T18:24:37.018Z,11.90
2018-04-15T18:27:05.596Z,11.07
2018-04-15T18:29:33.586Z,10.20
2018-04-15T18:32:01.684Z,9.70
2018-04-15T18:34:29.754Z,9.83
2018-04-15T18:36:57.847Z,10.57
2018-04-15T18:39:25.920Z,8.90
2018-04-15T18:41:53.972Z,8.30
2018-04-15T18:44:22.039Z,8.73
2018-04-15T18:46:50.062Z,8.90
2018-04-15T18:49:18.075Z,7.77
2018-04-15T18:51:46.430Z,8.90
2018-04-15T18:54:14.508Z,9.50
2018-04-15T18:56:42.421Z,9.07
2018-04-15T18:59:10.533Z,9.63
2018-04-15T19:01:38.641Z,8.03
2018-04-15T19:04:06.692Z,8.17
2018-04-15T19:06:34.724Z,8.70
2018-04-15T19:09:02.864Z,9.37
2018-04-15T19:11:30.986Z,9.20
2018-04-15T19:13:58.991Z,8.37
2018-04-15T19:16:26.922Z,9.37
2018-04-15T19:18:54.934Z,7.73
2018-04-15T19:21:22.956Z,6.97
2018-04-15T19:23:51.054Z,8.33
2018-04-15T19:26:19.131Z,7.80
2018-04-15T19:28:47.119Z,7.50
2018-04-15T19:31:15.276Z,7.17
2018-04-15T19:33:43.243Z,7.80
2018-04-15T19:36:11.323Z,6.73
2018-04-15T19:38:39.354Z,8.07
2018-04-15T19:41:07.413Z,6.50
2018-04-15T19:43:35.522Z,5.77
2018-04-15T19:46:03.595Z,6.10
2018-04-15T19:48:31.676Z,7.23
2018-04-15T19:50:59.789Z,6.50
2018-04-15T19:53:28.254Z,5.60
2018-04-15T19:55:56.341Z,6.73
2018-04-15T19:58:24.400Z,6.90
2018-04-15T20:00:52.380Z,7.10
2018-04-15T20:03:20.411Z,6.40
2018-04-15T20:05:48.579Z,6.53
2018-04-15T20:08:16.593Z,6.73
2018-04-15T20:10:44.692Z,6.10
2018-04-15T20:13:12.766Z,7.87
2018-04-15T20:15:40.811Z,5.30
2018-04-15T20:18:09.024Z,5.23
2018-04-15T20:20:37.138Z,5.70
2018-04-15T20:23:05.242Z,5.43
2018-04-15T20:25:33.373Z,6.70
2018-04-15T20:28:01.481Z,5.83
2018-04-15T20:30:29.580Z,4.80
2018-04-15T20:32:57.619Z,6.13
2018-04-15T20:35:25.655Z,5.17
2018-04-15T20:37:53.681Z,5.10
2018-04-15T20:40:21.734Z,5.13
2018-04-15T20:42:49.815Z,5.30
2018-04-15T20:45:17.876Z,4.73
2018-04-15T20:47:45.958Z,4.87
2018-04-15T20:50:13.999Z,4.83
2018-04-15T20:52:42.030Z,4.77
2018-04-15T20:55:10.498Z,5.97
2018-04-15T20:57:38.518Z,4.70
2018-04-15T21:00:06.616Z,4.63
2018-04-15T21:02:34.546Z,4.97
2018-04-15T21:05:02.620Z,4.37
2018-04-15T21:07:30.707Z,4.77
2018-04-15T21:09:58.892Z,4.80
2018-04-15T21:12:26.959Z,5.00
2018-04-15T21:14:54.946Z,4.37
2018-04-15T21:17:22.989Z,5.30
2018-04-15T21:19:51.016Z,3.97
2018-04-15T21:22:19.034Z,4.87
2018-04-15T21:24:47.054Z,5.63
2018-04-15T21:27:15.094Z,5.03
2018-04-15T21:29:43.077Z,5.17
2018-04-15T21:32:11.108Z,4.37
2018-04-15T21:34:38.989Z,5.53
2018-04-15T21:37:07.170Z,5.10
2018-04-15T21:39:35.237Z,5.13
2018-04-15T21:42:03.304Z,5.10
2018-04-15T21:44:31.327Z,5.43
2018-04-15T21:46:59.367Z,5.60
2018-04-15T21:49:27.372Z,5.67
2018-04-15T21:51:55.402Z,5.10
2018-04-15T21:54:23.555Z,5.63
2018-04-15T21:56:51.710Z,5.60
2018-04-15T21:59:19.722Z,4.70
2018-04-15T22:01:47.750Z,4.97
2018-04-15T22:04:15.701Z,5.57
2018-04-15T22:06:43.652Z,5.43
2018-04-15T22:09:11.538Z,5.37
2018-04-15T22:11:51.285Z,5.53
2018-04-15T22:14:20.314Z,6.00
2018-04-15T22:16:48.304Z,4.90
2018-04-15T22:19:16.304Z,6.10
2018-04-15T22:21:44.301Z,4.80
2018-04-15T22:24:12.319Z,6.17
2018-04-15T22:26:40.522Z,5.13
2018-04-15T22:29:08.485Z,6.50
2018-04-15T22:31:36.397Z,7.90
2018-04-15T22:34:04.381Z,7.60
2018-04-15T22:36:32.351Z,6.60
2018-04-15T22:39:00.347Z,5.93
2018-04-15T22:41:28.298Z,5.63
2018-04-15T22:43:56.285Z,6.90
2018-04-15T22:46:24.304Z,5.60
2018-04-15T22:48:57.281Z,6.00
2018-04-15T22:51:25.266Z,5.73
2018-04-15T22:53:53.318Z,6.40
2018-04-15T22:56:21.334Z,5.40
2018-04-15T22:58:49.701Z,5.63
2018-04-15T23:01:17.641Z,6.03
2018-04-15T23:03:45.645Z,5.43
2018-04-15T23:06:13.634Z,7.33
2018-04-15T23:08:41.590Z,6.30
2018-04-15T23:11:09.674Z,5.47
2018-04-15T23:13:37.619Z,6.13
2018-04-15T23:16:05.583Z,5.77
2018-04-15T23:18:33.611Z,6.37
2018-04-15T23:21:01.664Z,5.30
2018-04-15T23:23:29.592Z,6.50
2018-04-15T23:25:57.499Z,6.43
2018-04-15T23:28:25.458Z,5.63
2018-04-15T23:30:53.438Z,6.00
2018-04-15T23:33:21.443Z,6.20
2018-04-15T23:35:49.410Z,6.43
2018-04-15T23:38:17.313Z,6.23
2018-04-15T23:40:45.265Z,5.70
2018-04-15T23:43:13.222Z,6.07
2018-04-15T23:45:41.231Z,7.23
2018-04-15T23:48:09.233Z,5.80
2018-04-15T23:50:37.221Z,6.20
2018-04-15T23:53:05.161Z,5.90
2018-04-15T23:55:33.180Z,5.80
2018-04-15T23:58:01.210Z,5.57
